Time;durP1;ratioP1;P1;durP2;ratioP2;P2;SDS_P1;SDS_P2;PMS_P1;PMS_P2;Temp;Humidity;BMP_temperature;BMP_pressure;BME280_temperature;BME280_humidity;BME280_pressure;Samples;Min_cycle;Max_cycle;Signal;HPM_P1;HPM_P2
2021/07/04 00:00:28;;;;;;;9.07;8.17;;;16.40;99.90;;;;;;5072231;28;20204;-82
2021/07/04 00:02:55;;;;;;;9.10;8.17;;;16.40;99.90;;;;;;5078387;28;20271;-82
2021/07/04 00:05:27;;;;;;;9.10;7.90;;;16.30;99.90;;;;;;5082798;28;20428;-81
2021/07/04 00:07:53;;;;;;;8.17;7.30;;;16.40;99.90;;;;;;5072534;28;20845;-81
2021/07/04 00:10:24;;;;;;;10.10;8.13;;;16.50;99.90;;;;;;5064113;28;20480;-81
2021/07/04 00:12:50;;;;;;;9.10;8.27;;;16.30;99.90;;;;;;5054220;28;20178;-81
2021/07/04 00:15:17;;;;;;;10.40;8.20;;;16.30;99.90;;;;;;5076873;28;20430;-80
2021/07/04 00:17:43;;;;;;;8.67;7.87;;;16.30;99.90;;;;;;5087852;28;20435;-81
2021/07/04 00:20:12;;;;;;;8.80;7.97;;;16.20;99.90;;;;;;5059649;28;20429;-81
2021/07/04 00:22:38;;;;;;;9.07;8.17;;;16.20;99.90;;;;;;5072959;28;20428;-80
2021/07/04 00:25:07;;;;;;;10.03;8.00;;;16.10;99.90;;;;;;5066165;28;20593;-80
2021/07/04 00:27:33;;;;;;;9.60;8.73;;;16.10;99.90;;;;;;5092794;28;20407;-80
2021/07/04 00:29:58;;;;;;;9.50;8.50;;;16.10;99.90;;;;;;5084863;28;20440;-79
2021/07/04 00:32:24;;;;;;;9.10;8.20;;;16.20;99.90;;;;;;5072521;28;20192;-80
2021/07/04 00:34:49;;;;;;;10.23;8.73;;;16.20;99.90;;;;;;5069725;28;20186;-80
2021/07/04 00:37:15;;;;;;;10.70;8.50;;;16.10;99.90;;;;;;5079111;28;20198;-79
2021/07/04 00:39:40;;;;;;;10.03;9.13;;;16.30;99.90;;;;;;5072061;28;20216;-79
2021/07/04 00:42:06;;;;;;;9.23;8.37;;;16.10;99.90;;;;;;5076649;28;20774;-79
2021/07/04 00:44:32;;;;;;;10.63;8.80;;;16.30;99.90;;;;;;5074388;28;20209;-79
2021/07/04 00:46:57;;;;;;;10.03;8.30;;;16.30;99.90;;;;;;5079097;28;20956;-79
2021/07/04 00:49:23;;;;;;;9.50;8.60;;;16.30;99.90;;;;;;5063433;28;20217;-79
2021/07/04 00:51:48;;;;;;;8.90;8.00;;;16.20;99.90;;;;;;5064763;28;20578;-79
2021/07/04 00:54:14;;;;;;;10.23;9.20;;;16.20;99.90;;;;;;5051846;28;20292;-79
2021/07/04 00:56:39;;;;;;;11.10;9.97;;;16.30;99.90;;;;;;5057912;28;20189;-79
2021/07/04 00:59:06;;;;;;;10.80;9.70;;;16.40;99.90;;;;;;5067005;28;20278;-79
2021/07/04 01:01:31;;;;;;;9.00;8.07;;;16.40;99.90;;;;;;5076691;28;20582;-79
2021/07/04 01:03:57;;;;;;;9.97;8.43;;;16.20;99.90;;;;;;5090420;28;20447;-79
2021/07/04 01:06:22;;;;;;;10.40;9.40;;;16.30;99.90;;;;;;5080356;28;20182;-79
2021/07/04 01:08:48;;;;;;;9.63;8.70;;;16.10;99.90;;;;;;5069333;28;20562;-79
2021/07/04 01:11:13;;;;;;;8.87;7.97;;;16.50;99.90;;;;;;5056021;28;20197;-79
2021/07/04 01:13:39;;;;;;;10.00;9.00;;;16.10;99.90;;;;;;5085230;28;20232;-79
2021/07/04 01:16:05;;;;;;;9.10;8.20;;;16.30;99.90;;;;;;5077365;28;20594;-79
2021/07/04 01:18:30;;;;;;;12.80;8.27;;;16.40;99.90;;;;;;5062779;28;20278;-79
2021/07/04 01:20:58;;;;;;;10.00;8.00;;;16.20;99.90;;;;;;5060976;28;20185;-79
2021/07/04 01:23:24;;;;;;;9.77;8.50;;;16.20;99.90;;;;;;5074304;28;20209;-79
2021/07/04 01:25:52;;;;;;;10.73;9.60;;;16.20;99.90;;;;;;5089843;28;20811;-80
2021/07/04 01:28:18;;;;;;;9.70;8.73;;;16.20;99.90;;;;;;5089978;28;20182;-79
2021/07/04 01:30:49;;;;;;;11.70;9.50;;;16.10;99.90;;;;;;5060364;28;20439;-79
2021/07/04 01:33:14;;;;;;;10.77;9.37;;;16.00;99.90;;;;;;5056644;28;20458;-79
2021/07/04 01:35:40;;;;;;;9.27;8.47;;;16.10;99.90;;;;;;5070414;28;20479;-79
2021/07/04 01:38:05;;;;;;;10.30;9.20;;;16.00;99.90;;;;;;5082469;28;20182;-79
2021/07/04 01:40:31;;;;;;;9.43;8.53;;;16.30;99.90;;;;;;5060461;28;20202;-79
2021/07/04 01:42:57;;;;;;;12.00;10.03;;;16.20;99.90;;;;;;5050916;28;20211;-79
2021/07/04 01:45:23;;;;;;;12.20;9.03;;;16.50;99.90;;;;;;5082101;28;20181;-79
2021/07/04 01:47:50;;;;;;;9.67;8.77;;;16.30;99.90;;;;;;5078225;28;20434;-79
2021/07/04 01:50:26;;;;;;;11.07;9.40;;;16.40;99.90;;;;;;5072242;28;20267;-79
2021/07/04 01:52:52;;;;;;;10.97;8.70;;;16.50;99.90;;;;;;5079437;28;20464;-79
2021/07/04 01:55:18;;;;;;;9.43;8.50;;;16.30;99.90;;;;;;5078047;28;20807;-79
2021/07/04 01:57:46;;;;;;;10.03;9.00;;;16.20;99.90;;;;;;5075693;28;20418;-79
2021/07/04 02:00:20;;;;;;;10.10;9.10;;;16.40;99.90;;;;;;5053584;28;20932;-79
2021/07/04 02:02:51;;;;;;;9.23;8.37;;;16.20;99.90;;;;;;5065118;28;20427;-79
2021/07/04 02:05:16;;;;;;;9.73;8.73;;;16.30;99.90;;;;;;5079057;28;20440;-79
2021/07/04 02:07:42;;;;;;;10.27;9.20;;;16.40;99.90;;;;;;5056905;28;20465;-79
2021/07/04 02:10:13;;;;;;;10.13;9.13;;;16.10;99.90;;;;;;5050480;28;20215;-79
2021/07/04 02:12:38;;;;;;;10.10;9.10;;;16.10;99.90;;;;;;5053108;28;20719;-79
2021/07/04 02:15:19;;;;;;;9.53;8.53;;;16.30;99.90;;;;;;5086555;28;20436;-79
2021/07/04 02:17:46;;;;;;;10.03;8.77;;;15.80;99.90;;;;;;5081193;28;20182;-79
2021/07/04 02:20:32;;;;;;;9.90;8.90;;;15.80;99.90;;;;;;5050588;28;20433;-79
2021/07/04 02:23:11;;;;;;;10.40;9.40;;;16.00;99.90;;;;;;5059835;28;20440;-79
2021/07/04 02:25:40;;;;;;;9.47;8.57;;;15.60;99.90;;;;;;5063056;28;20518;-79
2021/07/04 02:28:07;;;;;;;9.93;8.93;;;15.70;99.90;;;;;;5090809;28;20807;-79
2021/07/04 02:30:35;;;;;;;10.60;9.60;;;15.50;99.90;;;;;;5077594;28;20432;-80
2021/07/04 02:33:03;;;;;;;15.33;9.37;;;15.60;99.90;;;;;;5072132;28;20435;-79
2021/07/04 02:35:33;;;;;;;10.80;9.67;;;15.60;99.90;;;;;;5053446;28;20455;-79
2021/07/04 02:37:59;;;;;;;9.23;8.33;;;15.50;99.90;;;;;;5080013;28;20444;-79
2021/07/04 02:40:26;;;;;;;12.10;9.97;;;15.40;99.90;;;;;;5069074;28;20837;-79
2021/07/04 02:42:52;;;;;;;10.80;9.57;;;15.40;99.90;;;;;;5049741;28;20930;-79
2021/07/04 02:45:19;;;;;;;9.37;8.50;;;15.40;99.90;;;;;;5054127;28;20436;-80
2021/07/04 02:47:45;;;;;;;9.77;8.77;;;15.40;99.90;;;;;;5058678;28;20182;-79
2021/07/04 02:50:11;;;;;;;11.67;9.43;;;15.20;99.90;;;;;;5065470;28;20447;-80
2021/07/04 02:52:37;;;;;;;10.63;9.57;;;15.60;99.90;;;;;;5070347;28;20901;-79
2021/07/04 02:55:08;;;;;;;10.17;9.17;;;15.40;99.90;;;;;;5069896;28;20569;-79
2021/07/04 02:57:34;;;;;;;10.33;9.27;;;15.40;99.90;;;;;;5060790;28;20451;-79
2021/07/04 03:00:00;;;;;;;11.90;10.30;;;15.40;99.90;;;;;;5053053;28;20519;-79
2021/07/04 03:02:26;;;;;;;10.90;9.47;;;15.40;99.90;;;;;;5049753;28;20582;-79
2021/07/04 03:04:53;;;;;;;11.33;10.13;;;15.90;99.90;;;;;;5065235;28;20572;-80
2021/07/04 03:07:19;;;;;;;10.77;9.67;;;15.70;99.90;;;;;;5077329;28;20472;-79
2021/07/04 03:09:44;;;;;;;11.00;9.77;;;15.70;99.90;;;;;;5074847;28;20832;-79
2021/07/04 03:12:10;;;;;;;10.97;9.97;;;15.50;99.90;;;;;;5090006;28;20415;-79
2021/07/04 03:14:36;;;;;;;11.30;10.03;;;15.60;99.90;;;;;;5077687;28;20213;-79
2021/07/04 03:17:02;;;;;;;10.50;9.40;;;15.70;99.90;;;;;;5070044;28;20213;-79
2021/07/04 03:19:28;;;;;;;10.60;9.60;;;15.60;99.90;;;;;;5067242;28;20536;-79
2021/07/04 03:21:54;;;;;;;10.73;9.73;;;15.80;99.90;;;;;;5065927;28;20444;-79
2021/07/04 03:24:19;;;;;;;10.47;9.40;;;15.90;99.90;;;;;;5069314;28;20883;-79
2021/07/04 03:26:45;;;;;;;10.27;9.13;;;15.60;99.90;;;;;;5073599;28;20211;-79
2021/07/04 03:29:10;;;;;;;8.93;8.17;;;15.70;99.90;;;;;;5071882;28;20310;-79
2021/07/04 03:31:36;;;;;;;9.77;8.80;;;16.00;99.90;;;;;;5051056;28;20186;-79
2021/07/04 03:34:01;;;;;;;10.17;9.17;;;16.00;99.90;;;;;;5049325;28;20594;-80
2021/07/04 03:36:27;;;;;;;10.50;9.50;;;15.90;99.90;;;;;;5066903;28;20626;-79
2021/07/04 03:38:52;;;;;;;10.00;9.00;;;16.10;99.90;;;;;;5049051;28;20654;-79
2021/07/04 03:41:18;;;;;;;9.60;8.70;;;15.90;99.90;;;;;;5050785;28;20193;-79
2021/07/04 03:43:43;;;;;;;10.40;9.30;;;16.00;99.90;;;;;;5049282;28;20591;-80
2021/07/04 03:46:09;;;;;;;10.73;9.73;;;16.00;99.90;;;;;;5083039;28;20666;-79
2021/07/04 03:48:35;;;;;;;11.20;10.20;;;16.10;99.90;;;;;;5064041;28;20259;-80
2021/07/04 03:51:01;;;;;;;11.60;10.40;;;16.00;99.90;;;;;;5069164;28;20297;-79
2021/07/04 03:53:27;;;;;;;10.27;9.27;;;16.20;99.90;;;;;;5049256;28;20554;-79
2021/07/04 03:55:52;;;;;;;9.67;8.87;;;16.00;99.90;;;;;;5076220;28;20442;-79
2021/07/04 03:58:18;;;;;;;9.47;8.20;;;16.00;99.90;;;;;;5089552;28;20917;-80
2021/07/04 04:00:43;;;;;;;10.07;9.07;;;16.10;99.90;;;;;;5082586;28;20190;-80
2021/07/04 04:03:09;;;;;;;9.03;8.20;;;16.20;99.90;;;;;;5053818;28;20186;-79
2021/07/04 04:05:34;;;;;;;9.17;8.27;;;16.40;99.90;;;;;;5051854;28;20189;-79
2021/07/04 04:08:00;;;;;;;9.23;8.33;;;16.40;99.90;;;;;;5079560;28;20603;-79
2021/07/04 04:10:26;;;;;;;8.40;7.60;;;16.30;99.90;;;;;;5068995;28;20202;-79
2021/07/04 04:12:51;;;;;;;8.80;8.00;;;16.30;99.90;;;;;;5059608;28;20195;-80
2021/07/04 04:15:17;;;;;;;9.03;8.20;;;16.40;99.90;;;;;;5064499;28;20190;-79
2021/07/04 04:17:42;;;;;;;8.87;8.07;;;16.50;99.90;;;;;;5073603;28;20183;-79
2021/07/04 04:20:09;;;;;;;10.00;8.70;;;16.40;99.90;;;;;;5061397;28;20182;-79
2021/07/04 04:22:35;;;;;;;10.13;8.60;;;16.70;99.90;;;;;;5062348;28;20183;-80
2021/07/04 04:25:00;;;;;;;8.80;8.00;;;16.50;99.90;;;;;;5055254;28;20471;-80
2021/07/04 04:27:26;;;;;;;9.40;8.33;;;16.30;99.90;;;;;;5087261;28;20435;-80
2021/07/04 04:29:52;;;;;;;9.60;8.47;;;16.60;99.90;;;;;;5087237;28;20186;-80
2021/07/04 04:32:17;;;;;;;10.37;9.40;;;16.80;99.90;;;;;;5071122;28;20239;-80
2021/07/04 04:34:43;;;;;;;9.43;8.53;;;16.60;99.90;;;;;;5085080;28;20637;-80
2021/07/04 04:37:08;;;;;;;9.93;8.73;;;16.80;99.90;;;;;;5077672;28;20194;-80
2021/07/04 04:39:34;;;;;;;9.80;8.33;;;16.90;99.90;;;;;;5070053;28;20189;-80
2021/07/04 04:42:00;;;;;;;9.30;8.50;;;16.90;99.90;;;;;;5065386;28;20273;-80
2021/07/04 04:44:26;;;;;;;10.57;8.80;;;16.70;99.90;;;;;;5076387;28;20690;-80
2021/07/04 04:46:51;;;;;;;9.20;8.30;;;16.70;99.90;;;;;;5079035;28;20491;-80
2021/07/04 04:49:17;;;;;;;9.60;8.57;;;16.80;99.90;;;;;;5052119;28;20190;-80
2021/07/04 04:51:42;;;;;;;8.10;7.30;;;16.70;99.90;;;;;;5068577;28;20183;-80
2021/07/04 04:54:08;;;;;;;8.67;7.97;;;16.70;99.90;;;;;;5073264;28;20193;-80
2021/07/04 04:56:35;;;;;;;8.00;7.20;;;16.50;99.90;;;;;;5083710;28;20560;-80
2021/07/04 04:59:01;;;;;;;8.20;7.10;;;16.80;99.90;;;;;;5090349;28;20426;-80
2021/07/04 05:01:29;;;;;;;9.00;8.20;;;16.70;99.90;;;;;;5078586;28;20542;-80
2021/07/04 05:03:57;;;;;;;8.13;7.43;;;16.80;99.90;;;;;;5065499;28;20462;-80
2021/07/04 05:06:23;;;;;;;10.13;8.87;;;16.80;99.90;;;;;;5074343;28;20428;-80
2021/07/04 05:08:48;;;;;;;9.30;8.37;;;16.80;99.90;;;;;;5071619;28;20468;-80
2021/07/04 05:11:14;;;;;;;8.57;7.77;;;16.80;99.90;;;;;;5058950;28;20241;-80
2021/07/04 05:13:39;;;;;;;8.67;7.77;;;16.90;99.90;;;;;;5056177;28;20613;-80
2021/07/04 05:16:05;;;;;;;9.37;8.40;;;16.80;99.90;;;;;;5063034;28;20206;-80
2021/07/04 05:18:31;;;;;;;8.90;8.00;;;17.40;99.90;;;;;;5068276;28;20535;-80
2021/07/04 05:20:57;;;;;;;9.63;8.47;;;17.30;99.90;;;;;;5072382;28;20445;-79
2021/07/04 05:23:23;;;;;;;8.33;7.63;;;17.40;99.90;;;;;;5068565;28;20463;-79
2021/07/04 05:25:49;;;;;;;9.10;8.30;;;17.80;99.90;;;;;;5060882;28;20214;-79
2021/07/04 05:28:16;;;;;;;9.50;8.70;;;18.00;99.90;;;;;;5086922;28;20188;-79
2021/07/04 05:30:42;;;;;;;10.10;8.97;;;18.40;99.90;;;;;;5083224;28;20438;-79
2021/07/04 05:33:08;;;;;;;8.70;7.90;;;18.70;99.90;;;;;;5090355;28;20973;-78
2021/07/04 05:35:34;;;;;;;10.23;9.13;;;18.50;99.90;;;;;;5061182;28;20189;-79
2021/07/04 05:38:00;;;;;;;9.67;8.77;;;18.60;99.90;;;;;;5080948;28;20851;-79
2021/07/04 05:40:25;;;;;;;9.20;8.40;;;18.90;99.90;;;;;;5052177;28;20930;-79
2021/07/04 05:42:52;;;;;;;9.07;8.17;;;18.70;99.90;;;;;;5051356;28;20196;-78
2021/07/04 05:45:22;;;;;;;8.70;7.90;;;19.00;99.90;;;;;;5051821;28;20249;-78
2021/07/04 05:47:48;;;;;;;10.43;9.53;;;19.10;99.90;;;;;;5070012;28;20428;-78
2021/07/04 05:50:13;;;;;;;8.20;7.50;;;19.20;99.90;;;;;;5065487;28;21005;-78
2021/07/04 05:52:39;;;;;;;8.60;7.80;;;19.50;99.90;;;;;;5076218;28;20185;-78
2021/07/04 05:55:05;;;;;;;7.60;6.90;;;20.00;99.90;;;;;;5088540;28;20189;-77
2021/07/04 05:57:30;;;;;;;7.40;6.77;;;20.00;99.90;;;;;;5080501;28;20727;-78
2021/07/04 05:59:56;;;;;;;8.27;7.57;;;19.90;99.90;;;;;;5070906;28;20186;-77
2021/07/04 06:02:21;;;;;;;7.53;6.93;;;19.90;99.90;;;;;;5056832;28;20533;-77
2021/07/04 06:04:47;;;;;;;7.80;7.10;;;19.90;99.90;;;;;;5076795;28;20252;-83
2021/07/04 06:07:12;;;;;;;8.27;7.57;;;19.80;99.90;;;;;;5063548;28;20253;-76
2021/07/04 06:09:38;;;;;;;8.40;7.63;;;19.70;99.90;;;;;;5089184;28;20211;-75
2021/07/04 06:12:04;;;;;;;9.20;8.30;;;19.50;99.90;;;;;;5081001;28;20208;-76
2021/07/04 06:14:29;;;;;;;8.87;8.17;;;19.90;99.90;;;;;;5083204;28;20192;-76
2021/07/04 06:16:55;;;;;;;8.10;7.40;;;20.40;99.90;;;;;;5078613;28;20182;-77
2021/07/04 06:19:20;;;;;;;8.57;7.87;;;20.40;99.90;;;;;;5075551;28;20190;-77
2021/07/04 06:21:46;;;;;;;7.00;6.40;;;21.10;99.90;;;;;;5072869;28;20177;-76
2021/07/04 06:24:11;;;;;;;7.03;6.47;;;21.60;99.90;;;;;;5073208;28;20218;-76
2021/07/04 06:26:37;;;;;;;8.50;7.80;;;22.60;99.90;;;;;;5071731;28;20175;-76
2021/07/04 06:29:03;;;;;;;7.40;6.77;;;22.90;99.90;;;;;;5071657;28;20227;-77
2021/07/04 06:31:28;;;;;;;7.13;6.53;;;23.50;99.90;;;;;;5084973;28;20242;-76
2021/07/04 06:33:58;;;;;;;7.33;6.73;;;24.10;97.50;;;;;;5085468;28;20917;-76
2021/07/04 06:36:27;;;;;;;7.50;6.73;;;24.40;94.10;;;;;;5080508;28;20585;-77
2021/07/04 06:38:54;;;;;;;7.20;6.50;;;24.60;90.80;;;;;;5080508;28;20520;-76
2021/07/04 06:41:20;;;;;;;7.30;6.60;;;25.20;87.80;;;;;;5079024;28;20430;-76
2021/07/04 06:43:46;;;;;;;7.43;6.70;;;25.60;88.20;;;;;;5075196;28;21020;-76
2021/07/04 06:46:11;;;;;;;6.50;6.00;;;26.00;85.00;;;;;;5069280;28;20420;-76
2021/07/04 06:48:37;;;;;;;8.47;7.80;;;26.50;81.70;;;;;;5069947;28;20220;-76
2021/07/04 06:51:04;;;;;;;6.30;5.90;;;27.00;74.30;;;;;;5073111;28;20187;-77
2021/07/04 06:53:29;;;;;;;7.00;6.40;;;27.10;73.90;;;;;;5061464;28;20462;-76
2021/07/04 06:55:55;;;;;;;7.00;6.50;;;26.90;74.00;;;;;;5067594;28;20845;-76
2021/07/04 06:58:20;;;;;;;7.00;6.50;;;26.60;72.30;;;;;;5068405;28;20239;-76
2021/07/04 07:00:49;;;;;;;6.50;5.90;;;26.40;76.00;;;;;;5074287;28;20182;-76
2021/07/04 07:03:15;;;;;;;5.93;5.53;;;26.50;75.40;;;;;;5074451;28;20227;-76
2021/07/04 07:05:40;;;;;;;7.23;6.70;;;26.60;73.60;;;;;;5069671;28;20431;-76
2021/07/04 07:08:06;;;;;;;6.13;5.73;;;27.10;76.30;;;;;;5075954;28;20228;-76
2021/07/04 07:10:32;;;;;;;6.40;6.00;;;28.00;75.60;;;;;;5069751;28;20230;-76
2021/07/04 07:12:58;;;;;;;7.13;6.53;;;29.00;73.40;;;;;;5070050;28;20210;-76
2021/07/04 07:15:24;;;;;;;5.90;5.43;;;29.50;65.00;;;;;;5069636;28;20188;-76
2021/07/04 07:17:49;;;;;;;6.53;6.03;;;29.40;63.10;;;;;;5072425;28;20970;-75
2021/07/04 07:20:16;;;;;;;6.50;6.00;;;29.20;62.40;;;;;;5070121;28;20187;-76
2021/07/04 07:22:42;;;;;;;6.53;6.10;;;28.90;65.40;;;;;;5068650;28;20183;-75
2021/07/04 07:25:08;;;;;;;6.60;6.10;;;28.80;64.40;;;;;;5068799;28;20542;-76
2021/07/04 07:27:34;;;;;;;7.53;6.17;;;28.70;64.80;;;;;;5068653;28;20439;-76
2021/07/04 07:30:00;;;;;;;6.70;6.10;;;28.50;64.90;;;;;;5070136;28;20451;-75
2021/07/04 07:32:27;;;;;;;7.23;6.63;;;28.10;62.80;;;;;;5070407;28;20937;-76
2021/07/04 07:34:53;;;;;;;6.60;6.10;;;27.80;61.30;;;;;;5069227;28;20200;-79
2021/07/04 07:37:19;;;;;;;6.57;5.93;;;27.50;63.40;;;;;;5069446;28;20802;-75
2021/07/04 07:39:45;;;;;;;6.37;5.80;;;27.20;63.80;;;;;;5066339;28;20438;-75
2021/07/04 07:42:10;;;;;;;6.20;5.60;;;27.00;66.70;;;;;;5068240;28;20955;-75
2021/07/04 07:44:36;;;;;;;6.03;5.63;;;26.70;67.90;;;;;;5068035;28;20224;-75
2021/07/04 07:47:03;;;;;;;6.30;5.83;;;26.50;65.30;;;;;;5067277;28;20220;-75
2021/07/04 07:49:28;;;;;;;6.77;6.13;;;26.30;65.00;;;;;;5068101;28;20197;-75
2021/07/04 07:51:54;;;;;;;6.80;6.30;;;26.50;68.50;;;;;;5068377;28;20432;-76
2021/07/04 07:54:20;;;;;;;6.97;6.37;;;27.30;70.80;;;;;;5067700;28;20712;-76
2021/07/04 07:56:47;;;;;;;6.37;5.87;;;28.40;65.10;;;;;;5067665;28;20597;-76
2021/07/04 07:59:13;;;;;;;6.83;6.27;;;29.50;60.40;;;;;;5068328;28;20804;-77
2021/07/04 08:01:39;;;;;;;5.80;5.40;;;30.00;55.90;;;;;;5067484;28;20451;-76
2021/07/04 08:04:04;;;;;;;6.13;5.63;;;30.30;57.40;;;;;;5067914;28;20831;-76
2021/07/04 08:06:30;;;;;;;7.33;6.73;;;31.10;55.70;;;;;;5068477;28;20527;-76
2021/07/04 08:08:55;;;;;;;6.60;6.07;;;32.10;53.10;;;;;;5067092;28;20256;-77
2021/07/04 08:11:21;;;;;;;6.13;5.73;;;32.80;52.90;;;;;;5067705;28;20241;-76
2021/07/04 08:13:46;;;;;;;7.27;6.67;;;33.00;52.30;;;;;;5070013;28;20189;-77
2021/07/04 08:16:14;;;;;;;7.23;6.73;;;32.50;49.00;;;;;;5071773;28;20201;-77
2021/07/04 08:18:40;;;;;;;6.10;5.60;;;32.80;51.20;;;;;;5068526;28;20201;-77
2021/07/04 08:21:06;;;;;;;6.10;5.60;;;33.50;50.40;;;;;;5071774;28;20428;-77
2021/07/04 08:23:31;;;;;;;6.70;5.50;;;34.50;50.50;;;;;;5067490;28;20829;-77
2021/07/04 08:25:57;;;;;;;5.97;5.57;;;35.20;47.40;;;;;;5068421;28;20690;-77
2021/07/04 08:28:22;;;;;;;6.23;5.63;;;34.90;46.50;;;;;;5071558;28;20738;-76
2021/07/04 08:30:48;;;;;;;5.63;5.23;;;34.30;45.00;;;;;;5070400;28;20194;-77
2021/07/04 08:33:14;;;;;;;5.77;5.30;;;34.60;46.90;;;;;;5072181;28;20209;-77
2021/07/04 08:35:40;;;;;;;5.97;5.57;;;34.60;41.80;;;;;;5079732;28;20196;-78
2021/07/04 08:38:06;;;;;;;5.03;4.63;;;35.00;43.70;;;;;;5074388;28;20189;-76
2021/07/04 08:40:32;;;;;;;5.80;5.40;;;35.20;42.70;;;;;;5075292;28;20447;-76
2021/07/04 08:42:58;;;;;;;5.47;5.00;;;35.30;39.70;;;;;;5073387;28;20884;-77
2021/07/04 08:45:23;;;;;;;6.17;5.77;;;34.80;40.90;;;;;;5071689;28;20270;-76
2021/07/04 08:47:49;;;;;;;5.27;4.87;;;33.60;40.30;;;;;;5076662;28;20182;-76
2021/07/04 08:50:14;;;;;;;6.30;5.70;;;32.40;43.70;;;;;;5073655;28;20672;-76
2021/07/04 08:52:41;;;;;;;5.53;5.17;;;31.60;47.40;;;;;;5081071;28;20220;-76
2021/07/04 08:55:09;;;;;;;5.90;5.50;;;31.60;47.30;;;;;;5071713;28;20194;-77
2021/07/04 08:57:35;;;;;;;4.93;4.53;;;32.20;46.30;;;;;;5070126;28;20429;-76
2021/07/04 09:00:00;;;;;;;6.10;5.60;;;33.10;45.70;;;;;;5072599;28;20450;-76
2021/07/04 09:02:35;;;;;;;5.33;5.03;;;33.70;42.00;;;;;;5073189;28;20246;-76
2021/07/04 09:05:09;;;;;;;5.33;4.93;;;34.70;40.30;;;;;;5074172;28;20243;-76
2021/07/04 09:07:35;;;;;;;5.63;5.13;;;35.30;39.60;;;;;;5075167;28;20528;-77
2021/07/04 09:10:10;;;;;;;4.90;4.50;;;35.20;38.70;;;;;;5081044;28;20461;-78
2021/07/04 09:12:45;;;;;;;5.53;5.13;;;34.50;37.00;;;;;;5066972;28;20434;-77
2021/07/04 09:15:18;;;;;;;5.20;4.80;;;33.70;39.20;;;;;;5073911;28;20492;-76
2021/07/04 09:17:46;;;;;;;4.63;4.33;;;32.60;39.90;;;;;;5070173;28;20461;-76
2021/07/04 09:20:20;;;;;;;5.50;5.10;;;31.90;42.00;;;;;;5074228;28;20428;-76
2021/07/04 09:22:52;;;;;;;5.50;5.10;;;31.50;43.50;;;;;;5074004;28;20444;-75
2021/07/04 09:25:20;;;;;;;5.33;4.93;;;31.30;44.90;;;;;;5076252;28;21053;-76
2021/07/04 09:28:06;;;;;;;5.97;5.53;;;31.00;43.60;;;;;;5075747;28;20447;-76
2021/07/04 09:30:42;;;;;;;5.67;5.23;;;30.90;45.70;;;;;;5066117;28;20462;-76
2021/07/04 09:33:17;;;;;;;4.90;4.50;;;30.70;45.40;;;;;;5070608;28;20438;-75
2021/07/04 09:35:53;;;;;;;6.40;5.90;;;30.60;45.20;;;;;;5073207;28;20439;-74
2021/07/04 09:38:20;;;;;;;5.40;5.00;;;30.30;46.10;;;;;;5075237;28;20439;-75
2021/07/04 09:40:50;;;;;;;5.37;4.97;;;30.20;47.10;;;;;;5070899;28;20442;-75
2021/07/04 09:43:17;;;;;;;5.67;5.20;;;30.20;47.10;;;;;;5080939;28;20466;-74
2021/07/04 09:45:45;;;;;;;6.13;5.10;;;30.30;46.90;;;;;;5072426;28;20938;-74
2021/07/04 09:48:11;;;;;;;5.13;4.83;;;30.20;45.00;;;;;;5071328;28;20447;-75
2021/07/04 09:50:42;;;;;;;5.67;5.27;;;30.40;46.20;;;;;;5070354;28;20545;-75
2021/07/04 09:53:08;;;;;;;4.87;4.57;;;30.60;46.00;;;;;;5080511;28;21088;-73
2021/07/04 09:55:35;;;;;;;5.10;4.80;;;30.90;43.10;;;;;;5068556;28;20459;-74
2021/07/04 09:58:06;;;;;;;5.70;5.30;;;31.10;44.40;;;;;;5067482;28;20479;-74
2021/07/04 10:00:37;;;;;;;5.30;4.90;;;31.90;45.10;;;;;;5069758;28;20501;-75
2021/07/04 10:03:14;;;;;;;5.67;5.07;;;32.50;42.40;;;;;;5070346;28;20925;-74
2021/07/04 10:05:55;;;;;;;5.47;5.07;;;32.70;41.50;;;;;;5076745;28;20945;-75
2021/07/04 10:08:29;;;;;;;5.03;4.73;;;32.60;40.70;;;;;;5073126;28;20471;-74
2021/07/04 10:11:06;;;;;;;5.33;4.93;;;32.50;41.40;;;;;;5077057;28;20525;-74
2021/07/04 10:13:36;;;;;;;5.07;4.67;;;32.20;42.60;;;;;;5073089;28;20526;-75
2021/07/04 10:16:02;;;;;;;5.33;4.93;;;31.80;42.90;;;;;;5070386;28;20446;-75
2021/07/04 10:18:28;;;;;;;6.63;6.03;;;31.30;43.50;;;;;;5069159;28;20938;-74
2021/07/04 10:20:54;;;;;;;5.37;4.90;;;30.60;43.70;;;;;;5070010;28;20434;-74
2021/07/04 10:23:25;;;;;;;5.67;5.17;;;29.90;44.80;;;;;;5070038;28;20204;-74
2021/07/04 10:25:52;;;;;;;5.90;5.50;;;29.30;46.40;;;;;;5073128;28;20521;-74
2021/07/04 10:28:31;;;;;;;5.60;5.00;;;28.90;47.80;;;;;;5070083;28;21213;-74
2021/07/04 10:30:58;;;;;;;5.50;5.10;;;28.60;48.80;;;;;;5075665;28;20436;-74
2021/07/04 10:33:32;;;;;;;4.93;4.53;;;28.40;49.30;;;;;;5071484;28;20485;-74
2021/07/04 10:36:06;;;;;;;5.40;5.10;;;28.30;50.10;;;;;;5062488;28;20463;-74
2021/07/04 10:38:51;;;;;;;4.60;4.30;;;28.10;49.90;;;;;;5069947;28;20482;-74
2021/07/04 10:41:24;;;;;;;5.67;5.17;;;27.90;50.20;;;;;;5073806;28;20847;-74
2021/07/04 10:43:55;;;;;;;5.53;5.13;;;27.70;50.80;;;;;;5078725;28;20476;-74
2021/07/04 10:46:42;;;;;;;6.00;5.60;;;27.70;51.90;;;;;;5072922;28;20807;-74
2021/07/04 10:49:23;;;;;;;5.80;5.40;;;27.60;52.20;;;;;;5057486;28;20877;-74
2021/07/04 10:51:58;;;;;;;5.70;5.20;;;27.50;52.90;;;;;;5073897;28;20917;-74
2021/07/04 10:54:48;;;;;;;5.53;5.13;;;27.50;52.70;;;;;;5070782;28;20935;-74
2021/07/04 10:57:33;;;;;;;5.40;5.00;;;27.50;52.90;;;;;;5063570;28;20442;-74
2021/07/04 11:00:01;;;;;;;4.83;4.53;;;27.50;52.80;;;;;;5070018;28;20436;-74
2021/07/04 11:02:41;;;;;;;5.13;4.73;;;27.60;52.80;;;;;;5070084;28;20443;-74
2021/07/04 11:05:08;;;;;;;5.03;4.70;;;27.60;52.80;;;;;;5072661;28;20464;-74
2021/07/04 11:07:52;;;;;;;5.20;4.80;;;27.80;52.90;;;;;;5077077;28;20465;-74
2021/07/04 11:10:21;;;;;;;5.57;5.17;;;28.10;53.60;;;;;;5076330;28;20533;-74
2021/07/04 11:12:49;;;;;;;5.00;4.60;;;28.40;51.60;;;;;;5069880;28;20446;-73
2021/07/04 11:15:21;;;;;;;5.40;5.00;;;28.50;51.30;;;;;;5069977;28;20478;-73
2021/07/04 11:17:58;;;;;;;5.50;5.10;;;28.60;51.50;;;;;;5068063;28;20432;-73
2021/07/04 11:20:40;;;;;;;4.93;4.57;;;28.70;51.00;;;;;;5072096;28;20505;-74
2021/07/04 11:23:22;;;;;;;4.63;4.33;;;28.70;50.80;;;;;;5069485;28;20435;-75
2021/07/04 11:25:56;;;;;;;4.80;4.40;;;28.90;49.60;;;;;;5076059;28;20544;-74
2021/07/04 11:28:26;;;;;;;5.40;4.90;;;29.00;48.80;;;;;;5068658;28;20528;-74
2021/07/04 11:30:59;;;;;;;4.43;4.13;;;29.10;49.00;;;;;;5069754;28;20437;-74
2021/07/04 11:33:38;;;;;;;4.20;3.90;;;29.20;48.90;;;;;;5068253;28;20436;-74
2021/07/04 11:36:08;;;;;;;4.73;4.33;;;29.30;49.20;;;;;;5068569;28;20440;-74
2021/07/04 11:38:39;;;;;;;4.50;4.20;;;29.30;47.50;;;;;;5075970;28;20456;-74
2021/07/04 11:41:08;;;;;;;4.57;4.27;;;29.20;46.60;;;;;;5069265;28;20548;-73
2021/07/04 11:43:36;;;;;;;5.10;4.70;;;29.10;47.00;;;;;;5067376;28;20484;-74
2021/07/04 11:46:06;;;;;;;4.60;4.30;;;29.00;46.70;;;;;;5071216;28;21009;-74
2021/07/04 11:48:44;;;;;;;4.87;4.57;;;28.80;47.60;;;;;;5069877;28;20439;-74
2021/07/04 11:51:10;;;;;;;5.10;4.70;;;28.60;49.20;;;;;;5073488;28;20440;-74
2021/07/04 11:53:46;;;;;;;5.87;5.40;;;28.50;48.60;;;;;;5076498;28;20427;-74
2021/07/04 11:56:13;;;;;;;5.00;4.63;;;28.30;48.70;;;;;;5071307;28;20436;-74
2021/07/04 11:58:38;;;;;;;4.97;4.67;;;28.10;49.70;;;;;;5072485;28;20835;-74
2021/07/04 12:01:14;;;;;;;5.33;4.93;;;27.80;50.40;;;;;;5075525;28;20522;-75
2021/07/04 12:03:40;;;;;;;5.83;5.43;;;27.50;51.60;;;;;;5081754;28;20395;-75
2021/07/04 12:06:07;;;;;;;4.73;4.33;;;27.30;52.30;;;;;;5074025;28;20459;-74
2021/07/04 12:08:53;;;;;;;5.53;5.07;;;27.10;52.70;;;;;;5074542;28;20270;-74
2021/07/04 12:11:19;;;;;;;5.03;4.67;;;27.00;53.10;;;;;;5072052;28;20463;-75
2021/07/04 12:13:46;;;;;;;5.20;4.80;;;26.90;53.00;;;;;;5073481;28;20435;-75
2021/07/04 12:16:12;;;;;;;5.60;5.20;;;27.00;53.60;;;;;;5076141;28;20435;-75
2021/07/04 12:18:39;;;;;;;5.07;4.70;;;27.30;53.70;;;;;;5075468;28;20442;-74
2021/07/04 12:21:05;;;;;;;4.73;4.43;;;27.80;52.20;;;;;;5071587;28;20734;-74
2021/07/04 12:23:31;;;;;;;5.00;4.70;;;28.30;51.20;;;;;;5072869;28;20448;-74
2021/07/04 12:26:05;;;;;;;5.10;4.70;;;29.00;50.60;;;;;;5075372;28;20578;-74
2021/07/04 12:28:31;;;;;;;5.57;5.17;;;29.80;48.30;;;;;;5071401;28;20192;-75
2021/07/04 12:30:56;;;;;;;5.40;5.00;;;30.40;46.80;;;;;;5077116;28;20454;-76
2021/07/04 12:33:27;;;;;;;5.73;5.23;;;31.00;45.80;;;;;;5076330;28;20597;-75
2021/07/04 12:36:04;;;;;;;5.93;5.47;;;31.60;45.10;;;;;;5064493;28;20188;-74
2021/07/04 12:38:35;;;;;;;5.47;5.03;;;32.10;43.40;;;;;;5072566;28;20463;-73
2021/07/04 12:41:13;;;;;;;5.43;5.00;;;32.60;42.40;;;;;;5074062;28;20440;-74
2021/07/04 12:43:43;;;;;;;4.83;4.43;;;33.10;42.40;;;;;;5074237;28;20527;-75
2021/07/04 12:46:15;;;;;;;4.43;4.13;;;33.60;40.40;;;;;;5065962;28;20420;-76
2021/07/04 12:48:43;;;;;;;4.50;4.20;;;34.20;39.70;;;;;;5069229;28;20946;-76